createdAt,value
2018-09-02T00:00:32.561Z,14.62
2018-09-02T00:03:07.041Z,14.62
2018-09-02T00:05:41.502Z,14.58
2018-09-02T00:08:22.824Z,14.56
2018-09-02T00:10:57.471Z,14.49
2018-09-02T00:13:32.008Z,14.47
2018-09-02T00:16:07.260Z,14.42
2018-09-02T00:18:41.778Z,14.44
2018-09-02T00:21:16.370Z,14.39
2018-09-02T00:23:51.077Z,14.38
2018-09-02T00:26:25.632Z,14.35
2018-09-02T00:29:00.705Z,14.29
2018-09-02T00:31:35.333Z,14.22
2018-09-02T00:37:09.659Z,14.21
2018-09-02T00:39:44.436Z,14.19
2018-09-02T00:42:19.075Z,14.20
2018-09-02T00:44:53.540Z,14.11
2018-09-02T00:47:28.208Z,14.05
2018-09-02T00:50:03.188Z,14.04
2018-09-02T00:52:37.981Z,14.08
2018-09-02T00:55:12.584Z,14.05
2018-09-02T00:57:47.085Z,14.04
2018-09-02T01:00:21.928Z,14.06
2018-09-02T01:02:56.825Z,14.10
2018-09-02T01:05:31.593Z,14.05
2018-09-02T01:08:06.601Z,13.95
2018-09-02T01:10:41.161Z,13.91
2018-09-02T01:16:25.665Z,13.89
2018-09-02T01:19:00.219Z,13.91
2018-09-02T01:21:35.023Z,14.11
2018-09-02T01:24:09.984Z,14.18
2018-09-02T01:26:44.408Z,14.17
2018-09-02T01:29:19.056Z,14.13
2018-09-02T01:31:53.895Z,14.12
2018-09-02T01:34:28.524Z,14.10
2018-09-02T01:37:02.944Z,14.13
2018-09-02T01:39:37.404Z,14.12
2018-09-02T01:42:12.164Z,14.14
2018-09-02T01:44:46.512Z,14.05
2018-09-02T01:47:21.076Z,13.96
2018-09-02T01:49:57.649Z,13.98
2018-09-02T01:52:32.108Z,13.97
2018-09-02T01:55:06.696Z,13.94
2018-09-02T01:57:41.284Z,13.95
2018-09-02T02:00:16.804Z,13.90
2018-09-02T02:02:51.744Z,13.90
2018-09-02T02:05:26.276Z,13.88
2018-09-02T02:08:00.780Z,13.83
2018-09-02T02:10:35.948Z,13.73
2018-09-02T02:13:10.472Z,13.75
2018-09-02T02:15:45.100Z,13.92
2018-09-02T02:18:19.661Z,14.05
2018-09-02T02:20:54.183Z,14.07
2018-09-02T02:23:28.841Z,13.79
2018-09-02T02:26:03.460Z,13.87
2018-09-02T02:28:38.000Z,13.77
2018-09-02T02:31:12.594Z,13.77
2018-09-02T02:33:47.161Z,13.87
2018-09-02T02:36:21.822Z,13.91
2018-09-02T02:38:56.505Z,13.79
2018-09-02T02:41:30.844Z,13.79
2018-09-02T02:44:05.656Z,13.90
2018-09-02T02:46:40.089Z,13.93
2018-09-02T02:49:14.376Z,13.90
2018-09-02T02:51:48.969Z,13.92
2018-09-02T02:54:23.566Z,13.95
2018-09-02T02:56:58.069Z,13.89
2018-09-02T02:59:32.636Z,13.82
2018-09-02T03:02:07.148Z,13.67
2018-09-02T03:04:42.159Z,13.73
2018-09-02T03:07:16.761Z,13.82
2018-09-02T03:09:51.423Z,13.84
2018-09-02T03:12:26.210Z,13.78
2018-09-02T03:15:00.772Z,13.82
2018-09-02T03:17:35.429Z,13.66
2018-09-02T03:20:09.996Z,13.72
2018-09-02T03:22:44.528Z,13.59
2018-09-02T03:25:19.085Z,13.67
2018-09-02T03:27:53.701Z,13.67
2018-09-02T03:30:28.215Z,13.60
2018-09-02T03:33:02.597Z,13.57
2018-09-02T03:35:37.003Z,13.66
2018-09-02T03:38:11.771Z,13.63
2018-09-02T03:40:46.332Z,13.60
2018-09-02T03:43:20.872Z,13.55
2018-09-02T03:45:55.197Z,13.52
2018-09-02T03:48:30.085Z,13.51
2018-09-02T03:51:04.670Z,13.40
2018-09-02T03:53:39.276Z,13.41
2018-09-02T03:56:13.797Z,13.32
2018-09-02T03:58:48.768Z,13.25
2018-09-02T04:01:23.299Z,13.25
2018-09-02T04:03:57.701Z,13.30
2018-09-02T04:06:32.209Z,13.22
2018-09-02T04:09:08.888Z,13.19
2018-09-02T04:11:43.421Z,13.19
2018-09-02T04:14:18.048Z,13.17
2018-09-02T04:16:52.977Z,13.09
2018-09-02T04:19:27.597Z,13.09
2018-09-02T04:22:02.247Z,13.18
2018-09-02T04:24:36.993Z,13.25
2018-09-02T04:27:11.600Z,13.23
2018-09-02T04:29:46.527Z,13.15
2018-09-02T04:32:20.967Z,13.26
2018-09-02T04:34:55.476Z,13.29
2018-09-02T04:37:29.958Z,13.29
2018-09-02T04:40:04.439Z,13.26
2018-09-02T04:42:38.985Z,13.21
2018-09-02T04:45:13.573Z,13.16
2018-09-02T04:47:48.091Z,13.21
2018-09-02T04:50:22.616Z,13.26
2018-09-02T04:52:57.106Z,13.26
2018-09-02T04:55:31.672Z,13.25
2018-09-02T04:58:06.156Z,13.31
2018-09-02T05:00:40.885Z,13.31
2018-09-02T05:03:15.505Z,13.29
2018-09-02T05:05:50.377Z,13.31
2018-09-02T05:08:25.036Z,13.32
2018-09-02T05:10:59.539Z,13.35
2018-09-02T05:13:34.062Z,13.34
2018-09-02T05:16:08.449Z,13.32
2018-09-02T05:18:43.166Z,13.37
2018-09-02T05:30:15.325Z,13.86
2018-09-02T05:32:50.156Z,13.87
2018-09-02T05:35:24.750Z,13.91
2018-09-02T05:37:59.108Z,13.93
2018-09-02T05:40:33.672Z,13.98
2018-09-02T05:43:08.271Z,14.01
2018-09-02T05:45:43.041Z,13.89
2018-09-02T05:48:17.605Z,14.01
2018-09-02T05:50:52.072Z,14.18
2018-09-02T05:53:26.757Z,15.63
2018-09-02T05:56:01.276Z,18.20
2018-09-02T05:58:35.897Z,19.68
2018-09-02T06:01:10.424Z,21.65
2018-09-02T06:03:44.940Z,22.29
2018-09-02T06:06:19.762Z,23.05
2018-09-02T06:08:54.324Z,23.26
2018-09-02T06:11:28.735Z,24.42
2018-09-02T06:17:12.809Z,24.15
2018-09-02T06:19:47.412Z,24.92
2018-09-02T06:22:22.014Z,25.66
2018-09-02T06:24:56.541Z,26.48
2018-09-02T06:27:31.163Z,27.72
2018-09-02T06:30:06.061Z,28.73
2018-09-02T06:32:40.520Z,28.01
2018-09-02T06:35:15.007Z,29.15
2018-09-02T06:37:49.445Z,28.36
2018-09-02T06:40:24.401Z,29.42
2018-09-02T06:42:59.100Z,29.18
2018-09-02T06:45:33.738Z,30.34
2018-09-02T06:48:08.064Z,29.37
2018-09-02T06:50:42.668Z,29.93
2018-09-02T06:53:17.698Z,30.18
2018-09-02T06:55:52.404Z,31.09
2018-09-02T06:58:27.021Z,27.58
2018-09-02T07:01:01.484Z,28.65
2018-09-02T07:03:36.224Z,29.79
2018-09-02T07:06:10.696Z,30.55
2018-09-02T07:08:45.276Z,30.16
2018-09-02T07:11:19.854Z,31.88
2018-09-02T07:13:54.756Z,31.50
2018-09-02T07:16:29.348Z,32.56
2018-09-02T07:19:04.549Z,32.18
2018-09-02T07:21:38.963Z,32.42
2018-09-02T07:24:13.429Z,32.29
2018-09-02T07:26:57.853Z,30.81
2018-09-02T07:29:32.381Z,31.29
2018-09-02T07:32:06.884Z,30.58
2018-09-02T07:34:41.377Z,32.66
2018-09-02T07:37:15.969Z,32.27
2018-09-02T07:39:50.348Z,33.01
2018-09-02T07:42:24.826Z,31.64
2018-09-02T07:44:59.356Z,32.13
2018-09-02T07:47:33.850Z,31.54
2018-09-02T07:50:08.447Z,26.73
2018-09-02T07:52:43.012Z,26.40
2018-09-02T07:55:17.541Z,26.44
2018-09-02T07:57:52.230Z,26.43
2018-09-02T08:00:26.804Z,27.19
2018-09-02T08:03:01.341Z,25.65
2018-09-02T08:05:36.017Z,25.09
2018-09-02T08:08:10.645Z,24.15
2018-09-02T08:10:45.039Z,23.98
2018-09-02T08:13:19.970Z,23.96
2018-09-02T08:15:54.365Z,23.85
2018-09-02T08:18:28.838Z,23.84
2018-09-02T08:21:05.566Z,23.56
2018-09-02T08:23:40.348Z,23.38
2018-09-02T08:26:14.964Z,23.00
2018-09-02T08:28:49.592Z,22.25
2018-09-02T08:31:24.922Z,21.75
2018-09-02T08:33:59.486Z,22.88
2018-09-02T08:36:34.368Z,23.51
2018-09-02T08:39:10.636Z,23.72
2018-09-02T08:41:45.087Z,24.06
2018-09-02T08:44:19.673Z,23.89
2018-09-02T08:46:54.013Z,23.30
2018-09-02T08:49:28.529Z,23.19
2018-09-02T08:52:04.145Z,23.02
2018-09-02T08:57:38.176Z,22.81
2018-09-02T09:00:13.973Z,23.63
2018-09-02T09:02:49.769Z,23.43
2018-09-02T09:05:24.494Z,23.92
2018-09-02T09:07:59.145Z,24.03
2018-09-02T09:10:33.636Z,23.76
2018-09-02T09:13:07.981Z,24.76
2018-09-02T09:15:42.292Z,24.90
2018-09-02T09:18:16.761Z,25.44
2018-09-02T09:20:51.535Z,26.06
2018-09-02T09:23:25.960Z,25.51
2018-09-02T09:26:00.404Z,25.91
2018-09-02T09:28:34.965Z,25.42
2018-09-02T09:31:09.932Z,26.66
2018-09-02T09:33:44.480Z,26.77
2018-09-02T09:36:19.022Z,28.54
2018-09-02T09:38:53.480Z,27.93
2018-09-02T09:41:28.105Z,28.13
2018-09-02T09:44:02.568Z,26.35
2018-09-02T09:46:37.012Z,24.62
2018-09-02T09:49:11.607Z,23.96
2018-09-02T09:51:45.981Z,23.37
2018-09-02T09:54:20.754Z,23.04
2018-09-02T09:56:55.256Z,23.18
2018-09-02T09:59:29.804Z,22.96
2018-09-02T10:02:04.269Z,22.58
2018-09-02T10:04:38.935Z,22.92
2018-09-02T10:07:13.540Z,22.94
2018-09-02T10:09:49.337Z,22.49
2018-09-02T10:12:23.752Z,22.37
2018-09-02T10:14:58.474Z,22.56
2018-09-02T10:17:33.104Z,22.80
2018-09-02T10:20:07.902Z,22.94
2018-09-02T10:22:42.549Z,22.56
2018-09-02T10:25:17.088Z,22.53
2018-09-02T10:27:51.805Z,22.62
2018-09-02T10:30:26.716Z,22.75
2018-09-02T10:33:01.239Z,22.80
2018-09-02T10:35:36.425Z,23.11
2018-09-02T10:38:11.217Z,24.59
2018-09-02T10:40:45.756Z,26.19
2018-09-02T10:43:22.063Z,26.75
2018-09-02T10:45:56.928Z,26.19
2018-09-02T10:54:29.184Z,25.98
2018-09-02T10:57:03.713Z,25.99
2018-09-02T10:59:38.816Z,27.32
2018-09-02T11:02:13.493Z,27.22
2018-09-02T11:04:48.140Z,28.12
2018-09-02T11:07:23.328Z,27.25
2018-09-02T11:09:57.813Z,26.22
2018-09-02T11:12:32.451Z,26.19
2018-09-02T11:15:07.490Z,24.87
2018-09-02T11:17:42.012Z,24.99
2018-09-02T11:20:16.633Z,25.74
2018-09-02T11:22:51.020Z,25.02
2018-09-02T11:25:25.485Z,24.51
2018-09-02T11:28:00.015Z,24.37
2018-09-02T11:30:34.678Z,24.73
2018-09-02T11:33:09.327Z,24.10
2018-09-02T11:38:55.640Z,23.58
2018-09-02T11:41:30.130Z,23.33
2018-09-02T11:44:04.920Z,23.26
2018-09-02T11:46:39.564Z,23.34
2018-09-02T11:49:14.076Z,23.32
2018-09-02T11:51:48.584Z,23.32
2018-09-02T11:54:23.241Z,23.43
2018-09-02T11:56:57.781Z,23.37
2018-09-02T11:59:32.457Z,23.03
2018-09-02T12:02:06.944Z,23.09
2018-09-02T12:04:41.364Z,22.98
2018-09-02T12:07:15.917Z,22.67
2018-09-02T12:09:50.395Z,22.86
2018-09-02T12:12:24.929Z,22.80
2018-09-02T12:14:59.396Z,22.92
2018-09-02T12:17:34.001Z,22.85
2018-09-02T12:20:08.881Z,22.93
2018-09-02T12:22:43.693Z,22.95
2018-09-02T12:25:18.472Z,23.04
2018-09-02T12:27:52.890Z,23.02
2018-09-02T12:33:46.939Z,22.81
2018-09-02T12:36:21.375Z,23.02
2018-09-02T12:38:56.165Z,22.96
2018-09-02T12:41:30.661Z,23.05
2018-09-02T12:44:05.126Z,23.17
2018-09-02T12:46:39.717Z,22.96
2018-09-02T12:49:14.273Z,23.17
2018-09-02T12:51:49.052Z,23.05
2018-09-02T12:54:23.767Z,23.14
2018-09-02T12:56:58.316Z,22.92
2018-09-02T12:59:32.941Z,22.94
2018-09-02T13:02:07.436Z,22.99
2018-09-02T13:04:41.843Z,22.89
2018-09-02T13:07:16.269Z,23.21
2018-09-02T13:09:50.813Z,23.25
2018-09-02T13:12:25.281Z,23.28
2018-09-02T13:14:59.872Z,23.34
2018-09-02T13:17:41.121Z,23.37
2018-09-02T13:20:15.597Z,23.21
2018-09-02T13:22:50.094Z,23.03
2018-09-02T13:25:24.957Z,22.83
2018-09-02T13:27:59.512Z,23.02
2018-09-02T13:30:34.153Z,23.17
2018-09-02T13:33:08.605Z,23.33
2018-09-02T13:35:42.978Z,23.34
2018-09-02T13:38:17.396Z,23.30
2018-09-02T13:40:51.985Z,23.41
2018-09-02T13:43:45.001Z,23.30
2018-09-02T13:46:19.344Z,23.28
2018-09-02T13:48:53.652Z,23.42
2018-09-02T13:51:28.180Z,23.49
2018-09-02T13:54:02.840Z,23.60
2018-09-02T13:56:37.482Z,23.58
2018-09-02T13:59:12.007Z,23.47
2018-09-02T14:01:46.564Z,23.45
2018-09-02T14:04:21.069Z,23.45
2018-09-02T14:06:55.635Z,23.52
2018-09-02T14:09:30.472Z,23.63
2018-09-02T14:12:05.297Z,23.83
2018-09-02T14:14:40.036Z,23.59
2018-09-02T14:17:14.500Z,23.62
2018-09-02T14:19:49.052Z,23.73
2018-09-02T14:22:23.512Z,23.78
2018-09-02T14:24:58.177Z,23.85
2018-09-02T14:27:32.673Z,24.18
2018-09-02T14:30:07.662Z,24.27
2018-09-02T14:32:42.148Z,24.78
2018-09-02T14:35:17.002Z,24.98
2018-09-02T14:37:51.357Z,25.45
2018-09-02T14:40:26.028Z,26.06
2018-09-02T14:43:00.673Z,26.90
2018-09-02T14:45:35.201Z,28.00
2018-09-02T14:48:09.616Z,28.75
2018-09-02T14:50:44.182Z,29.00
2018-09-02T14:53:18.511Z,29.46
2018-09-02T14:55:52.980Z,29.68
2018-09-02T14:58:27.533Z,29.81
2018-09-02T15:01:02.197Z,28.84
2018-09-02T15:03:36.821Z,29.38
2018-09-02T15:06:11.395Z,29.72
2018-09-02T15:08:45.842Z,29.56
2018-09-02T15:11:20.487Z,29.02
2018-09-02T15:13:54.989Z,28.59
2018-09-02T15:16:29.844Z,27.22
2018-09-02T15:19:05.608Z,27.15
2018-09-02T15:21:40.485Z,26.85
2018-09-02T15:24:15.233Z,26.94
2018-09-02T15:26:49.985Z,27.44
2018-09-02T15:29:24.646Z,27.06
2018-09-02T15:31:59.186Z,27.60
2018-09-02T15:34:33.720Z,27.37
2018-09-02T15:37:08.314Z,26.96
2018-09-02T15:39:42.869Z,27.31
2018-09-02T15:42:17.352Z,27.04
2018-09-02T15:44:51.817Z,27.57
2018-09-02T15:47:26.232Z,27.01
2018-09-02T15:50:00.701Z,26.84
2018-09-02T15:52:35.505Z,27.67
2018-09-02T15:55:10.024Z,26.95
2018-09-02T15:57:44.473Z,27.37
2018-09-02T16:00:19.048Z,26.53
2018-09-02T16:02:53.663Z,26.48
2018-09-02T16:05:28.128Z,26.49
2018-09-02T16:08:02.472Z,26.86
2018-09-02T16:10:37.133Z,26.58
2018-09-02T16:22:29.584Z,24.78
2018-09-02T16:25:04.216Z,24.31
2018-09-02T16:27:38.744Z,24.40
2018-09-02T16:30:13.068Z,24.37
2018-09-02T16:32:47.554Z,24.13
2018-09-02T16:35:22.056Z,23.99
2018-09-02T16:37:56.712Z,23.84
2018-09-02T16:40:31.397Z,23.85
2018-09-02T16:43:06.100Z,23.46
2018-09-02T16:45:40.576Z,23.36
2018-09-02T16:48:15.154Z,23.21
2018-09-02T16:50:49.725Z,23.23
2018-09-02T16:53:38.623Z,23.05
2018-09-02T16:56:13.152Z,23.00
2018-09-02T16:58:47.965Z,22.82
2018-09-02T17:01:22.554Z,22.60
2018-09-02T17:04:02.552Z,22.41
2018-09-02T17:06:37.684Z,22.26
2018-09-02T17:09:12.749Z,22.21
2018-09-02T17:11:47.625Z,22.18
2018-09-02T17:14:36.157Z,22.09
2018-09-02T17:17:10.633Z,21.97
2018-09-02T17:19:47.692Z,21.91
2018-09-02T17:22:22.271Z,21.85
2018-09-02T17:24:56.765Z,21.82
2018-09-02T17:27:31.240Z,21.76
2018-09-02T17:30:06.077Z,21.65
2018-09-02T17:32:40.571Z,21.61
2018-09-02T17:35:15.232Z,21.62
2018-09-02T17:37:49.769Z,21.51
2018-09-02T17:40:24.232Z,21.51
2018-09-02T17:42:58.782Z,21.47
2018-09-02T17:45:33.597Z,21.48
2018-09-02T17:48:08.269Z,21.44
2018-09-02T17:50:42.741Z,21.36
2018-09-02T17:53:17.194Z,21.39
2018-09-02T17:55:51.785Z,21.31
2018-09-02T17:58:26.345Z,21.25
2018-09-02T18:01:01.537Z,21.17
2018-09-02T18:06:35.706Z,21.06
2018-09-02T18:09:11.157Z,20.98
2018-09-02T18:11:45.770Z,20.94
2018-09-02T18:14:32.232Z,20.86
2018-09-02T18:17:06.972Z,20.82
2018-09-02T18:19:41.564Z,20.74
2018-09-02T18:22:16.268Z,20.70
2018-09-02T18:27:55.897Z,20.74
2018-09-02T18:30:30.507Z,20.63
2018-09-02T18:33:05.185Z,20.63
2018-09-02T18:35:39.941Z,20.58
2018-09-02T18:38:14.450Z,20.55
2018-09-02T18:40:48.877Z,20.48
2018-09-02T18:43:23.473Z,20.43
2018-09-02T18:45:58.043Z,20.40
2018-09-02T18:48:44.748Z,20.43
2018-09-02T18:54:20.260Z,20.43
2018-09-02T18:56:54.804Z,20.23
2018-09-02T18:59:29.447Z,20.34
2018-09-02T19:02:04.404Z,20.38
2018-09-02T19:04:39.169Z,20.38
2018-09-02T19:07:13.614Z,20.39
2018-09-02T19:09:48.328Z,20.36
2018-09-02T19:12:23.221Z,20.33
2018-09-02T19:14:57.958Z,20.31
2018-09-02T19:17:32.497Z,20.31
2018-09-02T19:20:07.477Z,20.32
2018-09-02T19:22:42.024Z,20.27
2018-09-02T19:25:16.785Z,20.24
2018-09-02T19:27:51.332Z,20.18
2018-09-02T19:30:25.976Z,20.05
2018-09-02T19:33:00.465Z,20.07
2018-09-02T19:35:35.017Z,19.83
2018-09-02T19:38:09.653Z,19.95
2018-09-02T19:40:44.204Z,19.93
2018-09-02T19:43:18.745Z,19.88
2018-09-02T19:45:53.384Z,19.87
2018-09-02T19:48:27.954Z,19.83
2018-09-02T19:51:02.568Z,19.73
2018-09-02T19:53:37.808Z,19.74
2018-09-02T19:56:12.344Z,19.67
2018-09-02T19:58:47.033Z,19.61
2018-09-02T20:01:21.528Z,19.50
2018-09-02T20:03:56.233Z,19.54
2018-09-02T20:06:30.733Z,19.57
2018-09-02T20:09:13.272Z,19.50
2018-09-02T20:11:48.094Z,19.45
2018-09-02T20:14:22.852Z,19.36
2018-09-02T20:16:57.802Z,19.44
2018-09-02T20:19:32.232Z,19.44
2018-09-02T20:22:09.236Z,19.37
2018-09-02T20:24:43.852Z,19.29
2018-09-02T20:27:18.234Z,19.35
2018-09-02T20:29:52.832Z,19.46
2018-09-02T20:32:27.272Z,19.46
2018-09-02T20:35:01.886Z,19.37
2018-09-02T20:37:36.448Z,19.34
2018-09-02T20:40:11.032Z,19.25
2018-09-02T20:42:45.593Z,19.30
2018-09-02T20:45:20.428Z,19.22
2018-09-02T20:47:55.384Z,19.16
2018-09-02T20:50:29.732Z,19.06
2018-09-02T20:53:04.149Z,19.18
2018-09-02T20:55:38.800Z,19.10
2018-09-02T20:58:13.334Z,19.08
2018-09-02T21:00:47.824Z,19.06
2018-09-02T21:03:22.303Z,18.97
2018-09-02T21:05:57.204Z,19.07
2018-09-02T21:08:31.827Z,18.99
2018-09-02T21:11:06.364Z,19.05
2018-09-02T21:13:40.958Z,18.95
2018-09-02T21:16:15.425Z,18.95
2018-09-02T21:18:49.961Z,18.94
2018-09-02T21:21:24.525Z,18.94
2018-09-02T21:23:59.037Z,19.01
2018-09-02T21:26:33.462Z,19.04
2018-09-02T21:29:07.924Z,18.93
2018-09-02T21:31:42.545Z,18.84
2018-09-02T21:34:17.014Z,18.83
2018-09-02T21:36:51.644Z,18.76
2018-09-02T21:39:26.063Z,18.81
2018-09-02T21:42:00.513Z,18.72
2018-09-02T21:44:35.219Z,18.75
2018-09-02T21:47:09.635Z,18.78
2018-09-02T21:49:44.533Z,18.71
2018-09-02T21:52:19.119Z,18.71
2018-09-02T21:54:53.732Z,18.69
2018-09-02T21:57:28.310Z,18.74
2018-09-02T22:00:03.155Z,18.68
2018-09-02T22:02:37.576Z,18.71
2018-09-02T22:05:13.492Z,18.73
2018-09-02T22:07:48.031Z,18.68
2018-09-02T22:10:22.554Z,18.60
2018-09-02T22:12:57.139Z,18.63
2018-09-02T22:15:31.997Z,18.67
2018-09-02T22:18:06.881Z,18.69
2018-09-02T22:20:41.424Z,18.66
2018-09-02T22:23:15.808Z,18.64
2018-09-02T22:25:50.264Z,18.52
2018-09-02T22:28:24.658Z,18.56
2018-09-02T22:30:59.237Z,18.47
2018-09-02T22:33:33.839Z,18.54
2018-09-02T22:36:08.541Z,18.52
2018-09-02T22:38:43.094Z,18.39
2018-09-02T22:41:17.504Z,18.43
2018-09-02T22:43:52.138Z,18.38
2018-09-02T22:46:26.680Z,18.35
2018-09-02T22:49:01.288Z,18.40
2018-09-02T22:51:35.901Z,18.35
2018-09-02T22:54:10.349Z,18.48
2018-09-02T22:56:44.961Z,18.45
2018-09-02T22:59:19.556Z,18.44
2018-09-02T23:01:54.048Z,18.39
2018-09-02T23:04:28.643Z,18.30
2018-09-02T23:07:03.246Z,18.31
2018-09-02T23:09:38.014Z,18.33
2018-09-02T23:12:12.629Z,18.25
2018-09-02T23:14:47.212Z,18.29
2018-09-02T23:17:21.744Z,18.29
2018-09-02T23:19:56.223Z,18.27
2018-09-02T23:22:30.728Z,18.13
2018-09-02T23:25:05.358Z,18.08
2018-09-02T23:27:40.026Z,17.99
2018-09-02T23:30:14.680Z,18.00
2018-09-02T23:32:49.324Z,17.83
2018-09-02T23:35:27.037Z,17.78
2018-09-02T23:38:14.758Z,17.64
2018-09-02T23:40:49.120Z,17.53
2018-09-02T23:43:23.609Z,17.43
2018-09-02T23:45:58.056Z,17.38
2018-09-02T23:48:32.464Z,17.47
2018-09-02T23:51:06.997Z,17.48
2018-09-02T23:53:41.621Z,17.44
2018-09-02T23:56:16.222Z,17.46
2018-09-02T23:58:50.938Z,17.39
